sensor_id;sensor_type;location;lat;lon;timestamp;P1;durP1;ratioP1;P2;durP2;ratioP2
41201;SDS011;26936;50.524;8.684;2024-02-26T00:00:59;6.35;;;2.95;;
41201;SDS011;26936;50.524;8.684;2024-02-26T00:03:25;5.00;;;2.70;;
41201;SDS011;26936;50.524;8.684;2024-02-26T00:05:50;4.53;;;2.40;;
41201;SDS011;26936;50.524;8.684;2024-02-26T00:08:15;4.70;;;2.80;;
41201;SDS011;26936;50.524;8.684;2024-02-26T00:10:40;6.50;;;2.20;;
41201;SDS011;26936;50.524;8.684;2024-02-26T00:13:06;6.07;;;2.42;;
41201;SDS011;26936;50.524;8.684;2024-02-26T00:15:31;5.68;;;2.78;;
41201;SDS011;26936;50.524;8.684;2024-02-26T00:17:56;3.70;;;2.60;;
41201;SDS011;26936;50.524;8.684;2024-02-26T00:20:22;4.80;;;2.40;;
41201;SDS011;26936;50.524;8.684;2024-02-26T00:22:47;4.87;;;2.40;;
41201;SDS011;26936;50.524;8.684;2024-02-26T00:25:12;5.07;;;2.63;;
41201;SDS011;26936;50.524;8.684;2024-02-26T00:27:37;5.47;;;2.33;;
41201;SDS011;26936;50.524;8.684;2024-02-26T00:30:04;3.38;;;2.20;;
41201;SDS011;26936;50.524;8.684;2024-02-26T00:32:30;4.10;;;2.13;;
41201;SDS011;26936;50.524;8.684;2024-02-26T00:34:55;5.65;;;2.50;;
41201;SDS011;26936;50.524;8.684;2024-02-26T00:37:20;3.90;;;2.33;;
41201;SDS011;26936;50.524;8.684;2024-02-26T00:39:46;3.67;;;2.20;;
41201;SDS011;26936;50.524;8.684;2024-02-26T00:42:11;5.07;;;2.78;;
41201;SDS011;26936;50.524;8.684;2024-02-26T00:44:37;4.10;;;2.20;;
41201;SDS011;26936;50.524;8.684;2024-02-26T00:47:02;4.67;;;2.07;;
41201;SDS011;26936;50.524;8.684;2024-02-26T00:49:27;5.85;;;2.28;;
41201;SDS011;26936;50.524;8.684;2024-02-26T00:51:52;3.67;;;2.10;;
41201;SDS011;26936;50.524;8.684;2024-02-26T00:54:18;4.47;;;2.10;;
41201;SDS011;26936;50.524;8.684;2024-02-26T00:56:43;5.43;;;2.70;;
41201;SDS011;26936;50.524;8.684;2024-02-26T00:59:08;4.17;;;2.20;;
41201;SDS011;26936;50.524;8.684;2024-02-26T01:01:34;4.60;;;2.03;;
41201;SDS011;26936;50.524;8.684;2024-02-26T01:03:59;3.15;;;2.20;;
41201;SDS011;26936;50.524;8.684;2024-02-26T01:06:25;2.28;;;1.73;;
41201;SDS011;26936;50.524;8.684;2024-02-26T01:08:50;3.53;;;1.92;;
41201;SDS011;26936;50.524;8.684;2024-02-26T01:11:15;3.05;;;2.15;;
41201;SDS011;26936;50.524;8.684;2024-02-26T01:13:41;2.95;;;1.98;;
41201;SDS011;26936;50.524;8.684;2024-02-26T01:16:06;3.72;;;1.98;;
41201;SDS011;26936;50.524;8.684;2024-02-26T01:18:31;3.10;;;1.80;;
41201;SDS011;26936;50.524;8.684;2024-02-26T01:20:56;3.63;;;1.92;;
41201;SDS011;26936;50.524;8.684;2024-02-26T01:23:22;4.78;;;2.03;;
41201;SDS011;26936;50.524;8.684;2024-02-26T01:25:47;3.60;;;1.95;;
41201;SDS011;26936;50.524;8.684;2024-02-26T01:28:13;3.95;;;2.03;;
41201;SDS011;26936;50.524;8.684;2024-02-26T01:30:39;3.03;;;1.73;;
41201;SDS011;26936;50.524;8.684;2024-02-26T01:33:04;2.70;;;1.60;;
41201;SDS011;26936;50.524;8.684;2024-02-26T01:35:29;2.92;;;1.90;;
41201;SDS011;26936;50.524;8.684;2024-02-26T01:37:55;3.67;;;1.77;;
41201;SDS011;26936;50.524;8.684;2024-02-26T01:40:20;3.88;;;2.10;;
41201;SDS011;26936;50.524;8.684;2024-02-26T01:42:46;3.75;;;1.90;;
41201;SDS011;26936;50.524;8.684;2024-02-26T01:45:13;2.92;;;1.88;;
41201;SDS011;26936;50.524;8.684;2024-02-26T01:47:52;2.78;;;1.40;;
41201;SDS011;26936;50.524;8.684;2024-02-26T01:50:18;2.63;;;1.90;;
41201;SDS011;26936;50.524;8.684;2024-02-26T01:52:44;3.80;;;1.92;;
41201;SDS011;26936;50.524;8.684;2024-02-26T01:55:11;3.13;;;1.88;;
41201;SDS011;26936;50.524;8.684;2024-02-26T01:57:39;2.60;;;1.83;;
41201;SDS011;26936;50.524;8.684;2024-02-26T02:00:05;4.00;;;2.03;;
41201;SDS011;26936;50.524;8.684;2024-02-26T02:02:32;3.60;;;1.92;;
41201;SDS011;26936;50.524;8.684;2024-02-26T02:04:57;4.35;;;2.10;;
41201;SDS011;26936;50.524;8.684;2024-02-26T02:07:23;3.53;;;1.63;;
41201;SDS011;26936;50.524;8.684;2024-02-26T02:09:49;3.10;;;1.90;;
41201;SDS011;26936;50.524;8.684;2024-02-26T02:12:15;3.25;;;1.40;;
41201;SDS011;26936;50.524;8.684;2024-02-26T02:14:40;3.70;;;1.80;;
41201;SDS011;26936;50.524;8.684;2024-02-26T02:17:06;3.33;;;1.85;;
41201;SDS011;26936;50.524;8.684;2024-02-26T02:19:32;2.40;;;1.50;;
41201;SDS011;26936;50.524;8.684;2024-02-26T02:21:57;4.05;;;2.00;;
41201;SDS011;26936;50.524;8.684;2024-02-26T02:24:22;3.93;;;1.97;;
41201;SDS011;26936;50.524;8.684;2024-02-26T02:26:47;6.07;;;2.10;;
41201;SDS011;26936;50.524;8.684;2024-02-26T02:29:13;2.75;;;1.80;;
41201;SDS011;26936;50.524;8.684;2024-02-26T02:31:39;3.35;;;1.83;;
41201;SDS011;26936;50.524;8.684;2024-02-26T02:34:05;3.55;;;2.08;;
41201;SDS011;26936;50.524;8.684;2024-02-26T02:36:30;3.75;;;1.98;;
41201;SDS011;26936;50.524;8.684;2024-02-26T02:38:56;3.50;;;1.87;;
41201;SDS011;26936;50.524;8.684;2024-02-26T02:41:21;3.13;;;1.90;;
41201;SDS011;26936;50.524;8.684;2024-02-26T02:43:46;5.78;;;2.17;;
41201;SDS011;26936;50.524;8.684;2024-02-26T02:46:12;2.78;;;1.60;;
41201;SDS011;26936;50.524;8.684;2024-02-26T02:48:37;2.90;;;1.77;;
41201;SDS011;26936;50.524;8.684;2024-02-26T02:51:03;2.45;;;1.60;;
41201;SDS011;26936;50.524;8.684;2024-02-26T02:53:29;3.15;;;1.65;;
41201;SDS011;26936;50.524;8.684;2024-02-26T02:55:54;3.72;;;1.98;;
41201;SDS011;26936;50.524;8.684;2024-02-26T02:58:19;3.57;;;2.10;;
41201;SDS011;26936;50.524;8.684;2024-02-26T03:00:45;4.63;;;2.05;;
41201;SDS011;26936;50.524;8.684;2024-02-26T03:03:10;3.67;;;1.90;;
41201;SDS011;26936;50.524;8.684;2024-02-26T03:05:35;2.90;;;1.60;;
41201;SDS011;26936;50.524;8.684;2024-02-26T03:08:01;2.40;;;1.87;;
41201;SDS011;26936;50.524;8.684;2024-02-26T03:10:26;3.97;;;1.73;;
41201;SDS011;26936;50.524;8.684;2024-02-26T03:12:51;4.25;;;2.00;;
41201;SDS011;26936;50.524;8.684;2024-02-26T03:15:16;3.17;;;1.60;;
41201;SDS011;26936;50.524;8.684;2024-02-26T03:17:42;3.58;;;2.17;;
41201;SDS011;26936;50.524;8.684;2024-02-26T03:20:07;3.70;;;1.90;;
41201;SDS011;26936;50.524;8.684;2024-02-26T03:22:34;2.97;;;1.90;;
41201;SDS011;26936;50.524;8.684;2024-02-26T03:25:00;3.33;;;1.63;;
41201;SDS011;26936;50.524;8.684;2024-02-26T03:27:25;4.40;;;1.70;;
41201;SDS011;26936;50.524;8.684;2024-02-26T03:29:50;2.65;;;1.55;;
41201;SDS011;26936;50.524;8.684;2024-02-26T03:32:16;4.18;;;1.80;;
41201;SDS011;26936;50.524;8.684;2024-02-26T03:34:41;1.92;;;1.40;;
41201;SDS011;26936;50.524;8.684;2024-02-26T03:37:07;3.65;;;1.70;;
41201;SDS011;26936;50.524;8.684;2024-02-26T03:39:34;5.60;;;1.98;;
41201;SDS011;26936;50.524;8.684;2024-02-26T03:41:59;3.03;;;1.30;;
41201;SDS011;26936;50.524;8.684;2024-02-26T03:44:25;3.42;;;1.70;;
41201;SDS011;26936;50.524;8.684;2024-02-26T03:46:50;2.95;;;1.75;;
41201;SDS011;26936;50.524;8.684;2024-02-26T03:49:15;3.93;;;1.70;;
41201;SDS011;26936;50.524;8.684;2024-02-26T03:51:41;2.88;;;1.90;;
41201;SDS011;26936;50.524;8.684;2024-02-26T03:54:06;3.50;;;1.70;;
41201;SDS011;26936;50.524;8.684;2024-02-26T03:56:32;2.17;;;1.58;;
41201;SDS011;26936;50.524;8.684;2024-02-26T03:58:57;2.33;;;1.43;;
41201;SDS011;26936;50.524;8.684;2024-02-26T04:01:24;3.67;;;1.92;;
41201;SDS011;26936;50.524;8.684;2024-02-26T04:03:49;2.42;;;1.50;;
41201;SDS011;26936;50.524;8.684;2024-02-26T04:06:15;2.33;;;1.35;;
41201;SDS011;26936;50.524;8.684;2024-02-26T04:08:42;2.63;;;1.75;;
41201;SDS011;26936;50.524;8.684;2024-02-26T04:11:08;2.83;;;1.45;;
41201;SDS011;26936;50.524;8.684;2024-02-26T04:13:33;3.45;;;1.90;;
41201;SDS011;26936;50.524;8.684;2024-02-26T04:15:59;2.70;;;1.75;;
41201;SDS011;26936;50.524;8.684;2024-02-26T04:18:26;2.72;;;1.55;;
41201;SDS011;26936;50.524;8.684;2024-02-26T04:20:52;2.53;;;1.35;;
41201;SDS011;26936;50.524;8.684;2024-02-26T04:23:17;2.70;;;1.48;;
41201;SDS011;26936;50.524;8.684;2024-02-26T04:25:42;3.70;;;1.38;;
41201;SDS011;26936;50.524;8.684;2024-02-26T04:28:08;2.97;;;1.50;;
41201;SDS011;26936;50.524;8.684;2024-02-26T04:30:33;3.35;;;1.60;;
41201;SDS011;26936;50.524;8.684;2024-02-26T04:32:58;3.17;;;1.63;;
41201;SDS011;26936;50.524;8.684;2024-02-26T04:35:24;2.55;;;1.70;;
41201;SDS011;26936;50.524;8.684;2024-02-26T04:37:49;6.45;;;3.35;;
41201;SDS011;26936;50.524;8.684;2024-02-26T04:40:14;3.63;;;2.13;;
41201;SDS011;26936;50.524;8.684;2024-02-26T04:42:39;2.37;;;1.60;;
41201;SDS011;26936;50.524;8.684;2024-02-26T04:45:05;5.32;;;1.77;;
41201;SDS011;26936;50.524;8.684;2024-02-26T04:47:32;2.30;;;1.60;;
41201;SDS011;26936;50.524;8.684;2024-02-26T04:49:57;2.60;;;1.40;;
41201;SDS011;26936;50.524;8.684;2024-02-26T04:52:22;2.25;;;1.40;;
41201;SDS011;26936;50.524;8.684;2024-02-26T04:54:48;4.25;;;1.77;;
41201;SDS011;26936;50.524;8.684;2024-02-26T04:57:13;3.13;;;1.43;;
41201;SDS011;26936;50.524;8.684;2024-02-26T04:59:38;3.70;;;1.80;;
41201;SDS011;26936;50.524;8.684;2024-02-26T05:02:05;2.72;;;1.42;;
41201;SDS011;26936;50.524;8.684;2024-02-26T05:04:31;3.05;;;1.50;;
41201;SDS011;26936;50.524;8.684;2024-02-26T05:06:56;3.78;;;1.80;;
41201;SDS011;26936;50.524;8.684;2024-02-26T05:09:21;3.63;;;1.55;;
41201;SDS011;26936;50.524;8.684;2024-02-26T05:11:47;2.55;;;1.60;;
41201;SDS011;26936;50.524;8.684;2024-02-26T05:14:12;3.23;;;1.57;;
41201;SDS011;26936;50.524;8.684;2024-02-26T05:16:37;3.20;;;1.50;;
41201;SDS011;26936;50.524;8.684;2024-02-26T05:19:03;3.65;;;1.63;;
41201;SDS011;26936;50.524;8.684;2024-02-26T05:21:28;2.92;;;1.45;;
41201;SDS011;26936;50.524;8.684;2024-02-26T05:23:53;2.28;;;1.67;;
41201;SDS011;26936;50.524;8.684;2024-02-26T05:26:22;3.70;;;1.50;;
41201;SDS011;26936;50.524;8.684;2024-02-26T05:28:47;3.45;;;1.90;;
41201;SDS011;26936;50.524;8.684;2024-02-26T05:31:13;3.08;;;1.73;;
41201;SDS011;26936;50.524;8.684;2024-02-26T05:33:39;5.03;;;1.88;;
41201;SDS011;26936;50.524;8.684;2024-02-26T05:36:04;3.05;;;1.85;;
41201;SDS011;26936;50.524;8.684;2024-02-26T05:38:30;2.55;;;1.90;;
41201;SDS011;26936;50.524;8.684;2024-02-26T05:40:56;3.97;;;1.85;;
41201;SDS011;26936;50.524;8.684;2024-02-26T05:43:22;3.97;;;1.88;;
41201;SDS011;26936;50.524;8.684;2024-02-26T05:45:47;2.50;;;1.77;;
41201;SDS011;26936;50.524;8.684;2024-02-26T05:48:12;2.40;;;1.50;;
41201;SDS011;26936;50.524;8.684;2024-02-26T05:50:38;3.80;;;1.77;;
41201;SDS011;26936;50.524;8.684;2024-02-26T05:53:03;4.72;;;1.95;;
41201;SDS011;26936;50.524;8.684;2024-02-26T05:55:28;2.50;;;1.63;;
41201;SDS011;26936;50.524;8.684;2024-02-26T05:57:54;2.75;;;1.70;;
41201;SDS011;26936;50.524;8.684;2024-02-26T06:00:20;2.83;;;1.73;;
41201;SDS011;26936;50.524;8.684;2024-02-26T06:02:45;2.75;;;1.80;;
41201;SDS011;26936;50.524;8.684;2024-02-26T06:05:10;2.63;;;1.45;;
41201;SDS011;26936;50.524;8.684;2024-02-26T06:07:36;2.42;;;1.58;;
41201;SDS011;26936;50.524;8.684;2024-02-26T06:10:01;5.15;;;1.60;;
41201;SDS011;26936;50.524;8.684;2024-02-26T06:12:29;5.18;;;1.90;;
41201;SDS011;26936;50.524;8.684;2024-02-26T06:14:55;2.53;;;1.73;;
41201;SDS011;26936;50.524;8.684;2024-02-26T06:17:21;2.63;;;1.55;;
41201;SDS011;26936;50.524;8.684;2024-02-26T06:19:46;3.67;;;1.55;;
41201;SDS011;26936;50.524;8.684;2024-02-26T06:22:11;2.50;;;1.75;;
41201;SDS011;26936;50.524;8.684;2024-02-26T06:24:37;3.60;;;1.92;;
41201;SDS011;26936;50.524;8.684;2024-02-26T06:27:02;3.57;;;2.20;;
41201;SDS011;26936;50.524;8.684;2024-02-26T06:29:28;2.95;;;1.90;;
41201;SDS011;26936;50.524;8.684;2024-02-26T06:31:53;2.50;;;1.60;;
41201;SDS011;26936;50.524;8.684;2024-02-26T06:34:18;2.50;;;1.40;;
41201;SDS011;26936;50.524;8.684;2024-02-26T06:36:44;3.13;;;1.80;;
41201;SDS011;26936;50.524;8.684;2024-02-26T06:39:09;2.92;;;1.70;;
41201;SDS011;26936;50.524;8.684;2024-02-26T06:41:35;4.22;;;1.80;;
41201;SDS011;26936;50.524;8.684;2024-02-26T06:44:01;4.00;;;1.70;;
41201;SDS011;26936;50.524;8.684;2024-02-26T06:46:29;4.43;;;2.20;;
41201;SDS011;26936;50.524;8.684;2024-02-26T06:48:55;3.53;;;1.70;;
41201;SDS011;26936;50.524;8.684;2024-02-26T06:51:21;3.72;;;1.50;;
41201;SDS011;26936;50.524;8.684;2024-02-26T06:53:46;3.88;;;1.73;;
41201;SDS011;26936;50.524;8.684;2024-02-26T06:56:11;3.13;;;1.80;;
41201;SDS011;26936;50.524;8.684;2024-02-26T06:58:37;3.90;;;1.80;;
41201;SDS011;26936;50.524;8.684;2024-02-26T07:01:02;3.13;;;1.87;;
41201;SDS011;26936;50.524;8.684;2024-02-26T07:03:27;4.25;;;1.73;;
41201;SDS011;26936;50.524;8.684;2024-02-26T07:05:54;4.85;;;1.77;;
41201;SDS011;26936;50.524;8.684;2024-02-26T07:08:19;3.20;;;1.85;;
41201;SDS011;26936;50.524;8.684;2024-02-26T07:10:44;2.63;;;1.83;;
41201;SDS011;26936;50.524;8.684;2024-02-26T07:13:09;3.00;;;2.05;;
41201;SDS011;26936;50.524;8.684;2024-02-26T07:15:35;3.05;;;1.88;;
41201;SDS011;26936;50.524;8.684;2024-02-26T07:18:00;4.47;;;1.60;;
41201;SDS011;26936;50.524;8.684;2024-02-26T07:20:28;3.45;;;1.80;;
41201;SDS011;26936;50.524;8.684;2024-02-26T07:22:55;3.15;;;1.80;;
41201;SDS011;26936;50.524;8.684;2024-02-26T07:25:20;3.05;;;1.80;;
41201;SDS011;26936;50.524;8.684;2024-02-26T07:27:46;3.42;;;1.80;;
41201;SDS011;26936;50.524;8.684;2024-02-26T07:30:11;3.33;;;1.80;;
41201;SDS011;26936;50.524;8.684;2024-02-26T07:32:37;4.68;;;1.80;;
41201;SDS011;26936;50.524;8.684;2024-02-26T07:35:02;4.32;;;2.10;;
41201;SDS011;26936;50.524;8.684;2024-02-26T07:37:28;4.30;;;2.10;;
41201;SDS011;26936;50.524;8.684;2024-02-26T07:39:53;2.95;;;1.70;;
41201;SDS011;26936;50.524;8.684;2024-02-26T07:42:19;3.10;;;1.85;;
41201;SDS011;26936;50.524;8.684;2024-02-26T07:44:44;3.60;;;2.38;;
41201;SDS011;26936;50.524;8.684;2024-02-26T07:47:10;3.08;;;2.00;;
41201;SDS011;26936;50.524;8.684;2024-02-26T07:49:35;4.95;;;2.40;;
41201;SDS011;26936;50.524;8.684;2024-02-26T07:52:00;4.07;;;2.30;;
41201;SDS011;26936;50.524;8.684;2024-02-26T07:54:25;4.13;;;2.05;;
41201;SDS011;26936;50.524;8.684;2024-02-26T07:56:51;4.57;;;2.10;;
41201;SDS011;26936;50.524;8.684;2024-02-26T07:59:16;3.00;;;2.13;;
41201;SDS011;26936;50.524;8.684;2024-02-26T08:01:41;4.97;;;2.10;;
41201;SDS011;26936;50.524;8.684;2024-02-26T08:04:06;3.22;;;1.90;;
41201;SDS011;26936;50.524;8.684;2024-02-26T08:06:32;4.47;;;2.10;;
41201;SDS011;26936;50.524;8.684;2024-02-26T08:08:57;4.20;;;1.98;;
41201;SDS011;26936;50.524;8.684;2024-02-26T08:11:22;4.03;;;2.23;;
41201;SDS011;26936;50.524;8.684;2024-02-26T08:13:47;5.07;;;2.60;;
41201;SDS011;26936;50.524;8.684;2024-02-26T08:16:13;6.13;;;2.63;;
41201;SDS011;26936;50.524;8.684;2024-02-26T08:18:38;3.50;;;1.88;;
41201;SDS011;26936;50.524;8.684;2024-02-26T08:21:03;6.30;;;2.72;;
41201;SDS011;26936;50.524;8.684;2024-02-26T08:23:29;8.93;;;4.78;;
41201;SDS011;26936;50.524;8.684;2024-02-26T08:25:56;9.05;;;4.40;;
41201;SDS011;26936;50.524;8.684;2024-02-26T08:28:21;6.97;;;3.03;;
41201;SDS011;26936;50.524;8.684;2024-02-26T08:30:46;5.82;;;3.20;;
41201;SDS011;26936;50.524;8.684;2024-02-26T08:33:11;5.85;;;3.50;;
41201;SDS011;26936;50.524;8.684;2024-02-26T08:35:38;8.30;;;3.30;;
41201;SDS011;26936;50.524;8.684;2024-02-26T08:38:03;5.82;;;2.38;;
41201;SDS011;26936;50.524;8.684;2024-02-26T08:40:29;3.95;;;2.55;;
41201;SDS011;26936;50.524;8.684;2024-02-26T08:42:54;7.00;;;3.47;;
41201;SDS011;26936;50.524;8.684;2024-02-26T08:45:20;6.82;;;2.70;;
41201;SDS011;26936;50.524;8.684;2024-02-26T08:47:46;5.03;;;2.85;;
41201;SDS011;26936;50.524;8.684;2024-02-26T08:50:11;8.20;;;4.00;;
41201;SDS011;26936;50.524;8.684;2024-02-26T08:52:37;10.30;;;5.10;;
41201;SDS011;26936;50.524;8.684;2024-02-26T08:55:03;8.88;;;4.55;;
41201;SDS011;26936;50.524;8.684;2024-02-26T08:57:29;6.22;;;2.83;;
41201;SDS011;26936;50.524;8.684;2024-02-26T08:59:56;7.70;;;3.28;;
41201;SDS011;26936;50.524;8.684;2024-02-26T09:02:22;5.32;;;2.83;;
41201;SDS011;26936;50.524;8.684;2024-02-26T09:04:47;8.15;;;3.13;;
41201;SDS011;26936;50.524;8.684;2024-02-26T09:07:12;4.68;;;2.80;;
41201;SDS011;26936;50.524;8.684;2024-02-26T09:09:38;6.18;;;3.05;;
41201;SDS011;26936;50.524;8.684;2024-02-26T09:12:03;5.05;;;3.03;;
41201;SDS011;26936;50.524;8.684;2024-02-26T09:14:29;4.90;;;3.30;;
41201;SDS011;26936;50.524;8.684;2024-02-26T09:16:54;6.93;;;3.60;;
41201;SDS011;26936;50.524;8.684;2024-02-26T09:19:19;7.45;;;4.20;;
41201;SDS011;26936;50.524;8.684;2024-02-26T09:21:44;6.17;;;3.97;;
41201;SDS011;26936;50.524;8.684;2024-02-26T09:24:11;6.50;;;2.95;;
41201;SDS011;26936;50.524;8.684;2024-02-26T09:26:36;7.22;;;3.33;;
41201;SDS011;26936;50.524;8.684;2024-02-26T09:29:02;7.15;;;4.10;;
41201;SDS011;26936;50.524;8.684;2024-02-26T09:31:28;6.50;;;3.50;;
41201;SDS011;26936;50.524;8.684;2024-02-26T09:33:59;6.47;;;3.80;;
41201;SDS011;26936;50.524;8.684;2024-02-26T09:36:24;6.22;;;2.95;;
41201;SDS011;26936;50.524;8.684;2024-02-26T09:38:50;5.82;;;3.08;;
41201;SDS011;26936;50.524;8.684;2024-02-26T09:41:15;5.37;;;2.93;;
41201;SDS011;26936;50.524;8.684;2024-02-26T09:43:42;5.53;;;3.03;;
41201;SDS011;26936;50.524;8.684;2024-02-26T09:46:10;5.82;;;2.95;;
41201;SDS011;26936;50.524;8.684;2024-02-26T09:48:35;5.80;;;3.30;;
41201;SDS011;26936;50.524;8.684;2024-02-26T09:51:02;5.57;;;3.05;;
41201;SDS011;26936;50.524;8.684;2024-02-26T09:53:28;6.45;;;3.63;;
41201;SDS011;26936;50.524;8.684;2024-02-26T09:55:56;5.25;;;3.00;;
41201;SDS011;26936;50.524;8.684;2024-02-26T09:58:22;5.07;;;2.95;;
41201;SDS011;26936;50.524;8.684;2024-02-26T10:00:50;7.25;;;3.00;;
41201;SDS011;26936;50.524;8.684;2024-02-26T10:03:18;6.93;;;3.10;;
41201;SDS011;26936;50.524;8.684;2024-02-26T10:05:47;5.45;;;3.20;;
41201;SDS011;26936;50.524;8.684;2024-02-26T10:08:14;5.35;;;2.95;;
41201;SDS011;26936;50.524;8.684;2024-02-26T10:10:43;8.35;;;3.67;;
41201;SDS011;26936;50.524;8.684;2024-02-26T10:13:08;7.57;;;3.30;;
41201;SDS011;26936;50.524;8.684;2024-02-26T10:15:37;8.63;;;3.25;;
41201;SDS011;26936;50.524;8.684;2024-02-26T10:18:06;5.53;;;3.03;;
41201;SDS011;26936;50.524;8.684;2024-02-26T10:20:31;6.95;;;3.85;;
41201;SDS011;26936;50.524;8.684;2024-02-26T10:22:57;8.43;;;3.65;;
41201;SDS011;26936;50.524;8.684;2024-02-26T10:25:23;7.60;;;3.42;;
41201;SDS011;26936;50.524;8.684;2024-02-26T10:27:49;6.00;;;3.15;;
41201;SDS011;26936;50.524;8.684;2024-02-26T10:30:22;7.05;;;4.18;;
41201;SDS011;26936;50.524;8.684;2024-02-26T10:32:54;6.00;;;3.35;;
41201;SDS011;26936;50.524;8.684;2024-02-26T10:35:19;7.28;;;3.55;;
41201;SDS011;26936;50.524;8.684;2024-02-26T10:37:48;5.78;;;3.78;;
41201;SDS011;26936;50.524;8.684;2024-02-26T10:40:15;7.85;;;3.80;;
41201;SDS011;26936;50.524;8.684;2024-02-26T10:42:43;8.63;;;3.85;;
41201;SDS011;26936;50.524;8.684;2024-02-26T10:45:11;7.07;;;3.28;;
41201;SDS011;26936;50.524;8.684;2024-02-26T10:47:37;7.13;;;3.40;;
41201;SDS011;26936;50.524;8.684;2024-02-26T10:50:03;7.10;;;3.58;;
41201;SDS011;26936;50.524;8.684;2024-02-26T10:52:34;7.75;;;3.22;;
41201;SDS011;26936;50.524;8.684;2024-02-26T10:55:01;7.82;;;3.97;;
41201;SDS011;26936;50.524;8.684;2024-02-26T11:00:06;6.88;;;3.08;;
41201;SDS011;26936;50.524;8.684;2024-02-26T11:02:35;6.80;;;3.58;;
41201;SDS011;26936;50.524;8.684;2024-02-26T11:05:04;6.68;;;3.95;;
41201;SDS011;26936;50.524;8.684;2024-02-26T11:07:31;9.43;;;4.28;;
41201;SDS011;26936;50.524;8.684;2024-02-26T11:10:01;5.72;;;3.08;;
41201;SDS011;26936;50.524;8.684;2024-02-26T11:12:31;5.95;;;3.17;;
41201;SDS011;26936;50.524;8.684;2024-02-26T11:14:57;5.13;;;2.97;;
41201;SDS011;26936;50.524;8.684;2024-02-26T11:17:25;6.05;;;3.00;;
41201;SDS011;26936;50.524;8.684;2024-02-26T11:19:53;6.07;;;3.40;;
41201;SDS011;26936;50.524;8.684;2024-02-26T11:22:24;6.03;;;3.30;;
41201;SDS011;26936;50.524;8.684;2024-02-26T11:24:51;16.00;;;8.18;;
41201;SDS011;26936;50.524;8.684;2024-02-26T11:27:19;10.35;;;4.75;;
41201;SDS011;26936;50.524;8.684;2024-02-26T11:29:49;16.00;;;6.85;;
41201;SDS011;26936;50.524;8.684;2024-02-26T11:32:17;11.93;;;4.35;;
41201;SDS011;26936;50.524;8.684;2024-02-26T11:34:46;13.70;;;6.60;;
41201;SDS011;26936;50.524;8.684;2024-02-26T11:37:12;7.05;;;3.17;;
41201;SDS011;26936;50.524;8.684;2024-02-26T11:39:39;6.50;;;3.67;;
41201;SDS011;26936;50.524;8.684;2024-02-26T11:42:08;6.00;;;3.03;;
41201;SDS011;26936;50.524;8.684;2024-02-26T11:44:34;7.32;;;4.10;;
41201;SDS011;26936;50.524;8.684;2024-02-26T11:47:09;8.23;;;3.83;;
41201;SDS011;26936;50.524;8.684;2024-02-26T11:49:38;8.98;;;3.90;;
41201;SDS011;26936;50.524;8.684;2024-02-26T11:52:10;6.50;;;3.60;;
41201;SDS011;26936;50.524;8.684;2024-02-26T11:57:24;5.53;;;2.92;;
41201;SDS011;26936;50.524;8.684;2024-02-26T12:05:53;5.43;;;3.03;;
41201;SDS011;26936;50.524;8.684;2024-02-26T12:08:19;5.47;;;2.67;;
41201;SDS011;26936;50.524;8.684;2024-02-26T12:10:46;6.45;;;2.72;;
41201;SDS011;26936;50.524;8.684;2024-02-26T12:13:14;6.03;;;2.90;;
41201;SDS011;26936;50.524;8.684;2024-02-26T12:15:44;6.35;;;3.65;;
41201;SDS011;26936;50.524;8.684;2024-02-26T12:18:17;4.93;;;3.80;;
41201;SDS011;26936;50.524;8.684;2024-02-26T12:20:43;5.80;;;3.72;;
41201;SDS011;26936;50.524;8.684;2024-02-26T12:23:15;7.18;;;3.70;;
41201;SDS011;26936;50.524;8.684;2024-02-26T12:25:43;6.45;;;3.15;;
41201;SDS011;26936;50.524;8.684;2024-02-26T12:28:09;5.55;;;2.90;;
41201;SDS011;26936;50.524;8.684;2024-02-26T12:30:34;5.50;;;3.00;;
41201;SDS011;26936;50.524;8.684;2024-02-26T12:33:00;5.63;;;2.97;;
41201;SDS011;26936;50.524;8.684;2024-02-26T12:35:26;7.85;;;2.97;;
41201;SDS011;26936;50.524;8.684;2024-02-26T12:37:56;7.10;;;3.55;;
41201;SDS011;26936;50.524;8.684;2024-02-26T12:40:22;5.00;;;3.25;;
41201;SDS011;26936;50.524;8.684;2024-02-26T12:42:48;5.18;;;2.85;;
41201;SDS011;26936;50.524;8.684;2024-02-26T12:45:14;5.28;;;3.08;;
41201;SDS011;26936;50.524;8.684;2024-02-26T12:47:41;5.82;;;3.25;;
41201;SDS011;26936;50.524;8.684;2024-02-26T12:50:08;6.93;;;3.20;;
41201;SDS011;26936;50.524;8.684;2024-02-26T12:52:35;4.13;;;2.60;;
41201;SDS011;26936;50.524;8.684;2024-02-26T12:55:01;7.70;;;3.42;;
41201;SDS011;26936;50.524;8.684;2024-02-26T12:57:28;6.82;;;3.72;;
41201;SDS011;26936;50.524;8.684;2024-02-26T12:59:55;7.47;;;3.10;;
41201;SDS011;26936;50.524;8.684;2024-02-26T13:02:21;5.70;;;3.30;;
41201;SDS011;26936;50.524;8.684;2024-02-26T13:04:47;5.57;;;3.15;;
41201;SDS011;26936;50.524;8.684;2024-02-26T13:07:13;5.90;;;3.15;;
41201;SDS011;26936;50.524;8.684;2024-02-26T13:09:38;4.25;;;2.50;;
41201;SDS011;26936;50.524;8.684;2024-02-26T13:12:04;6.15;;;2.58;;
41201;SDS011;26936;50.524;8.684;2024-02-26T13:14:31;6.38;;;2.97;;
41201;SDS011;26936;50.524;8.684;2024-02-26T13:16:58;5.32;;;2.58;;
41201;SDS011;26936;50.524;8.684;2024-02-26T13:19:24;4.03;;;2.70;;
41201;SDS011;26936;50.524;8.684;2024-02-26T13:21:49;5.25;;;2.22;;
41201;SDS011;26936;50.524;8.684;2024-02-26T13:24:15;6.00;;;2.80;;
41201;SDS011;26936;50.524;8.684;2024-02-26T13:26:41;4.10;;;2.65;;
41201;SDS011;26936;50.524;8.684;2024-02-26T13:29:06;6.25;;;3.08;;
41201;SDS011;26936;50.524;8.684;2024-02-26T13:31:38;7.63;;;3.17;;
41201;SDS011;26936;50.524;8.684;2024-02-26T13:34:04;4.63;;;2.85;;
41201;SDS011;26936;50.524;8.684;2024-02-26T13:36:30;6.50;;;3.00;;
41201;SDS011;26936;50.524;8.684;2024-02-26T13:38:55;4.90;;;2.50;;
41201;SDS011;26936;50.524;8.684;2024-02-26T13:41:23;4.22;;;2.45;;
41201;SDS011;26936;50.524;8.684;2024-02-26T13:43:49;4.35;;;2.65;;
41201;SDS011;26936;50.524;8.684;2024-02-26T13:46:15;4.63;;;2.67;;
41201;SDS011;26936;50.524;8.684;2024-02-26T13:48:42;5.38;;;3.03;;
41201;SDS011;26936;50.524;8.684;2024-02-26T13:51:07;6.13;;;2.88;;
41201;SDS011;26936;50.524;8.684;2024-02-26T13:53:32;5.40;;;3.30;;
41201;SDS011;26936;50.524;8.684;2024-02-26T13:55:58;4.28;;;2.70;;
41201;SDS011;26936;50.524;8.684;2024-02-26T13:58:26;4.50;;;2.72;;
41201;SDS011;26936;50.524;8.684;2024-02-26T14:00:52;4.03;;;2.50;;
41201;SDS011;26936;50.524;8.684;2024-02-26T14:03:20;3.33;;;2.38;;
41201;SDS011;26936;50.524;8.684;2024-02-26T14:05:46;4.20;;;2.67;;
41201;SDS011;26936;50.524;8.684;2024-02-26T14:08:11;5.32;;;2.40;;
41201;SDS011;26936;50.524;8.684;2024-02-26T14:10:38;5.68;;;1.92;;
41201;SDS011;26936;50.524;8.684;2024-02-26T14:13:04;5.88;;;2.33;;
41201;SDS011;26936;50.524;8.684;2024-02-26T14:15:29;3.60;;;2.42;;
41201;SDS011;26936;50.524;8.684;2024-02-26T14:17:55;3.42;;;1.90;;
41201;SDS011;26936;50.524;8.684;2024-02-26T14:20:23;4.82;;;2.22;;
41201;SDS011;26936;50.524;8.684;2024-02-26T14:22:49;3.45;;;1.90;;
41201;SDS011;26936;50.524;8.684;2024-02-26T14:25:17;6.50;;;2.10;;
41201;SDS011;26936;50.524;8.684;2024-02-26T14:27:42;3.20;;;1.97;;
41201;SDS011;26936;50.524;8.684;2024-02-26T14:30:07;3.53;;;2.00;;
41201;SDS011;26936;50.524;8.684;2024-02-26T14:32:33;3.70;;;2.10;;
41201;SDS011;26936;50.524;8.684;2024-02-26T14:35:01;3.90;;;1.95;;
41201;SDS011;26936;50.524;8.684;2024-02-26T14:37:27;4.55;;;2.20;;
41201;SDS011;26936;50.524;8.684;2024-02-26T14:39:53;4.40;;;2.20;;
41201;SDS011;26936;50.524;8.684;2024-02-26T14:42:18;3.60;;;2.07;;
41201;SDS011;26936;50.524;8.684;2024-02-26T14:44:44;3.88;;;2.17;;
41201;SDS011;26936;50.524;8.684;2024-02-26T14:47:09;5.53;;;2.15;;
41201;SDS011;26936;50.524;8.684;2024-02-26T14:49:34;4.13;;;1.88;;
41201;SDS011;26936;50.524;8.684;2024-02-26T14:52:00;5.53;;;2.40;;